Time;durP1;ratioP1;P1;durP2;ratioP2;P2;SDS_P1;SDS_P2;PMS_P1;PMS_P2;Temp;Humidity;BMP_temperature;BMP_pressure;BME280_temperature;BME280_humidity;BME280_pressure;Samples;Min_cycle;Max_cycle;Signal;HPM_P1;HPM_P2
2021/06/21 00:00:35;;;;;;;9.30;2.80;;;19.10;99.90;;;;;;5077760;28;20058;-69
2021/06/21 00:03:01;;;;;;;10.10;2.92;;;19.10;99.90;;;;;;5077323;28;20480;-69
2021/06/21 00:05:27;;;;;;;13.07;2.92;;;19.20;99.90;;;;;;5077208;28;20073;-70
2021/06/21 00:07:52;;;;;;;8.18;2.90;;;19.20;99.90;;;;;;5077182;28;20040;-70
2021/06/21 00:10:18;;;;;;;12.60;3.08;;;19.20;99.90;;;;;;5077025;28;20024;-70
2021/06/21 00:12:46;;;;;;;10.93;3.00;;;19.20;99.90;;;;;;5095161;28;20365;-70
2021/06/21 00:15:16;;;;;;;9.80;2.47;;;19.10;99.90;;;;;;5095101;28;20028;-70
2021/06/21 00:17:42;;;;;;;11.20;2.83;;;19.10;99.90;;;;;;5095289;28;20126;-70
2021/06/21 00:20:08;;;;;;;10.45;2.33;;;19.10;99.90;;;;;;5095060;28;20028;-70
2021/06/21 00:22:34;;;;;;;12.30;2.78;;;19.00;99.90;;;;;;5095088;28;20035;-70
2021/06/21 00:25:00;;;;;;;12.88;2.75;;;19.00;99.90;;;;;;5094952;28;20020;-70
2021/06/21 00:27:25;;;;;;;12.32;2.28;;;19.10;99.90;;;;;;5094940;28;20043;-70
2021/06/21 00:29:52;;;;;;;14.25;3.13;;;19.20;99.90;;;;;;5076591;28;20101;-70
2021/06/21 00:32:18;;;;;;;15.80;3.20;;;19.20;99.90;;;;;;5094750;28;20064;-70
2021/06/21 00:34:44;;;;;;;7.55;2.72;;;19.20;99.90;;;;;;5076488;28;20124;-69
2021/06/21 00:37:10;;;;;;;9.43;2.50;;;19.20;99.90;;;;;;5094855;28;20035;-69
2021/06/21 00:39:36;;;;;;;9.18;2.30;;;19.20;99.90;;;;;;5094703;28;20400;-69
2021/06/21 00:42:02;;;;;;;14.27;2.45;;;19.10;99.90;;;;;;5094626;28;20070;-69
2021/06/21 00:44:27;;;;;;;10.13;2.33;;;19.10;99.90;;;;;;5076338;28;20024;-69
2021/06/21 00:46:53;;;;;;;10.40;2.75;;;19.20;99.90;;;;;;5094517;28;20472;-69
2021/06/21 00:49:19;;;;;;;8.70;2.78;;;19.20;99.90;;;;;;5076378;28;20414;-69
2021/06/21 00:51:45;;;;;;;5.95;2.03;;;19.30;99.90;;;;;;5076106;28;20032;-69
2021/06/21 00:54:10;;;;;;;10.75;2.40;;;19.10;99.90;;;;;;5076342;28;20017;-70
2021/06/21 00:56:36;;;;;;;13.32;2.65;;;19.00;99.90;;;;;;5094374;28;20089;-70
2021/06/21 00:59:03;;;;;;;17.73;2.92;;;19.00;99.90;;;;;;5094278;28;20104;-70
2021/06/21 01:01:29;;;;;;;9.73;2.00;;;18.90;99.90;;;;;;5093719;28;20472;-70
2021/06/21 01:03:55;;;;;;;9.00;2.22;;;18.90;99.90;;;;;;5076005;28;20031;-70
2021/06/21 01:06:21;;;;;;;;;;;18.90;99.90;;;;;;5094643;28;20020;-70
2021/06/21 01:08:48;;;;;;;6.05;2.05;;;18.90;99.90;;;;;;5075953;28;19915;-70
2021/06/21 01:11:14;;;;;;;8.27;2.25;;;18.90;99.90;;;;;;5094124;28;20040;-70
2021/06/21 01:13:46;;;;;;;12.63;2.60;;;19.00;99.90;;;;;;5076219;28;20392;-70
2021/06/21 01:16:34;;;;;;;7.80;1.95;;;19.00;99.90;;;;;;5094281;28;20027;-70
2021/06/21 01:19:25;;;;;;;10.30;2.35;;;18.80;99.90;;;;;;5094136;28;20057;-70
2021/06/21 01:21:56;;;;;;;10.90;2.58;;;18.70;99.90;;;;;;5094291;28;20020;-70
2021/06/21 01:24:44;;;;;;;9.07;2.13;;;18.80;99.90;;;;;;5094198;28;20020;-70
2021/06/21 01:27:21;;;;;;;9.02;2.45;;;18.90;99.90;;;;;;5094129;28;20372;-70
2021/06/21 01:30:13;;;;;;;13.32;2.08;;;18.80;99.90;;;;;;5093949;28;20024;-70
2021/06/21 01:32:44;;;;;;;12.27;2.22;;;18.80;99.90;;;;;;5093467;28;20085;-69
2021/06/21 01:35:16;;;;;;;9.57;2.28;;;18.70;99.90;;;;;;5093868;28;20031;-70
2021/06/21 01:37:43;;;;;;;9.40;2.03;;;18.70;99.90;;;;;;5075593;28;20472;-70
2021/06/21 01:40:11;;;;;;;12.27;2.35;;;18.80;99.90;;;;;;5075417;28;20031;-70
2021/06/21 01:42:39;;;;;;;12.85;2.13;;;18.80;99.90;;;;;;5075822;28;20020;-70
2021/06/21 01:45:09;;;;;;;9.68;1.90;;;18.80;99.90;;;;;;5093833;28;20024;-70
2021/06/21 01:47:35;;;;;;;9.55;2.08;;;18.80;99.90;;;;;;5075406;28;20027;-70
2021/06/21 01:50:04;;;;;;;9.77;1.90;;;18.80;99.90;;;;;;5076173;28;20020;-70
2021/06/21 01:52:36;;;;;;;5.35;1.60;;;18.70;99.90;;;;;;5093858;28;20033;-70
2021/06/21 01:55:06;;;;;;;9.07;2.20;;;18.80;99.90;;;;;;5075368;28;20087;-70
2021/06/21 01:57:33;;;;;;;6.18;1.80;;;18.80;99.90;;;;;;5093666;28;20499;-70
2021/06/21 02:00:09;;;;;;;7.20;2.08;;;18.70;99.90;;;;;;5075499;28;20074;-70
2021/06/21 02:02:36;;;;;;;8.10;1.90;;;18.70;99.90;;;;;;5076142;28;20020;-70
2021/06/21 02:05:14;;;;;;;14.00;2.45;;;18.70;99.90;;;;;;5093375;28;20115;-70
2021/06/21 02:07:42;;;;;;;10.68;2.58;;;18.70;99.90;;;;;;5093096;28;20028;-70
2021/06/21 02:10:11;;;;;;;9.55;2.38;;;18.70;99.90;;;;;;5093078;28;20104;-70
2021/06/21 02:12:37;;;;;;;12.10;2.63;;;18.70;99.90;;;;;;5092881;28;20444;-70
2021/06/21 02:15:04;;;;;;;9.27;1.95;;;18.60;99.90;;;;;;5075035;28;20062;-70
2021/06/21 02:17:31;;;;;;;13.48;2.13;;;18.50;99.90;;;;;;5093153;28;20059;-70
2021/06/21 02:19:57;;;;;;;15.95;2.47;;;18.50;99.90;;;;;;5092994;28;20024;-70
2021/06/21 02:22:25;;;;;;;12.38;2.45;;;18.50;99.90;;;;;;5093116;28;20020;-70
2021/06/21 02:24:52;;;;;;;9.93;2.03;;;18.50;99.90;;;;;;5093357;28;20035;-70
2021/06/21 02:27:19;;;;;;;10.88;2.00;;;18.50;99.90;;;;;;5074653;28;20032;-70
2021/06/21 02:29:48;;;;;;;8.27;1.80;;;18.50;99.90;;;;;;5092869;28;20085;-70
2021/06/21 02:32:14;;;;;;;13.77;2.33;;;18.50;99.90;;;;;;5092923;28;20024;-70
2021/06/21 02:34:39;;;;;;;8.20;2.00;;;18.50;99.90;;;;;;5074758;28;20111;-70
2021/06/21 02:37:05;;;;;;;12.32;2.63;;;18.40;99.90;;;;;;5092871;28;20024;-70
2021/06/21 02:39:31;;;;;;;11.18;1.98;;;18.40;99.90;;;;;;5092737;28;20028;-70
2021/06/21 02:41:57;;;;;;;10.40;2.40;;;18.40;99.90;;;;;;5074563;28;20028;-70
2021/06/21 02:44:22;;;;;;;8.50;1.95;;;18.30;99.90;;;;;;5092752;28;20388;-70
2021/06/21 02:46:48;;;;;;;11.75;2.17;;;18.40;99.90;;;;;;5092557;28;20093;-70
2021/06/21 02:49:13;;;;;;;10.02;2.75;;;18.30;99.90;;;;;;5092796;28;20020;-70
2021/06/21 02:51:52;;;;;;;9.57;1.92;;;18.30;99.90;;;;;;5074934;28;20396;-70
2021/06/21 02:54:34;;;;;;;4.95;1.70;;;18.30;99.90;;;;;;5074752;28;20437;-70
2021/06/21 02:57:32;;;;;;;11.68;2.40;;;18.30;99.90;;;;;;5074522;28;20119;-70
2021/06/21 02:59:58;;;;;;;14.63;2.17;;;18.30;99.90;;;;;;5080399;28;20048;-70
2021/06/21 03:02:24;;;;;;;7.85;2.10;;;18.30;99.90;;;;;;5093099;28;20024;-70
2021/06/21 03:04:51;;;;;;;8.07;1.80;;;18.30;99.90;;;;;;5092560;28;20024;-70
2021/06/21 03:07:20;;;;;;;12.10;2.33;;;18.30;99.90;;;;;;5074278;28;20429;-70
2021/06/21 03:09:48;;;;;;;12.20;2.25;;;18.30;99.90;;;;;;5092472;28;20036;-70
2021/06/21 03:12:20;;;;;;;13.02;3.22;;;18.30;99.90;;;;;;5092485;28;20020;-70
2021/06/21 03:14:46;;;;;;;8.65;2.30;;;18.30;99.90;;;;;;5092595;28;20085;-70
2021/06/21 03:17:14;;;;;;;10.25;2.42;;;18.30;99.90;;;;;;5092680;28;20044;-70
2021/06/21 03:19:42;;;;;;;7.38;1.80;;;18.30;99.90;;;;;;5074484;28;20073;-70
2021/06/21 03:22:08;;;;;;;13.13;2.63;;;18.20;99.90;;;;;;5074550;28;20024;-70
2021/06/21 03:24:34;;;;;;;13.88;2.42;;;18.20;99.90;;;;;;5092674;28;20046;-70
2021/06/21 03:27:00;;;;;;;12.93;3.03;;;18.20;99.90;;;;;;5095905;28;20024;-69
2021/06/21 03:29:27;;;;;;;12.20;2.40;;;18.20;99.90;;;;;;5095974;28;20087;-69
2021/06/21 03:31:54;;;;;;;9.40;2.15;;;18.20;99.90;;;;;;5077397;28;20031;-69
2021/06/21 03:34:22;;;;;;;13.90;2.40;;;18.20;99.90;;;;;;5095628;28;20491;-69
2021/06/21 03:36:48;;;;;;;10.90;2.08;;;18.20;99.90;;;;;;5095857;28;20024;-70
2021/06/21 03:39:15;;;;;;;9.48;2.33;;;18.20;99.90;;;;;;5077281;28;20027;-70
2021/06/21 03:41:40;;;;;;;;;;;18.20;99.90;;;;;;5096242;28;20369;-70
2021/06/21 03:44:06;;;;;;;11.90;2.88;;;18.20;99.90;;;;;;5096084;28;19910;-70
2021/06/21 03:46:32;;;;;;;17.42;2.35;;;18.20;99.90;;;;;;5095776;28;20024;-70
2021/06/21 03:48:58;;;;;;;13.38;2.85;;;18.20;99.90;;;;;;5078108;28;20488;-70
2021/06/21 03:51:24;;;;;;;10.48;2.25;;;18.20;99.90;;;;;;5095422;28;20046;-69
2021/06/21 03:53:50;;;;;;;;;;;18.10;99.90;;;;;;5095996;28;20474;-70
2021/06/21 03:56:16;;;;;;;9.10;2.72;;;18.10;99.90;;;;;;5095466;28;19943;-70
2021/06/21 03:58:41;;;;;;;16.50;2.80;;;18.20;99.90;;;;;;5095495;28;20095;-70
2021/06/21 04:01:07;;;;;;;11.05;2.20;;;18.20;99.90;;;;;;5095313;28;20429;-69
2021/06/21 04:03:33;;;;;;;8.85;2.10;;;18.20;99.90;;;;;;5077197;28;20020;-70
2021/06/21 04:05:59;;;;;;;9.30;2.28;;;18.20;99.90;;;;;;5095583;28;20020;-69
2021/06/21 04:08:24;;;;;;;11.88;3.20;;;18.20;99.90;;;;;;5095250;28;20051;-70
2021/06/21 04:10:50;;;;;;;10.23;2.67;;;18.20;99.90;;;;;;5095068;28;20032;-69
2021/06/21 04:13:17;;;;;;;8.75;2.25;;;18.30;99.90;;;;;;5095159;28;20066;-70
2021/06/21 04:15:45;;;;;;;16.80;2.72;;;18.30;99.90;;;;;;5095092;28;20361;-70
2021/06/21 04:18:13;;;;;;;11.55;2.35;;;18.30;99.90;;;;;;5095212;28;20031;-70
2021/06/21 04:20:41;;;;;;;9.88;2.55;;;18.40;99.90;;;;;;5076817;28;20024;-69
2021/06/21 04:23:08;;;;;;;10.23;2.00;;;18.40;99.90;;;;;;5094927;28;20020;-69
2021/06/21 04:25:34;;;;;;;9.82;1.88;;;18.40;99.90;;;;;;5094959;28;20028;-69
2021/06/21 04:28:01;;;;;;;12.82;2.72;;;18.40;99.90;;;;;;5095120;28;20073;-70
2021/06/21 04:30:26;;;;;;;10.85;2.28;;;18.50;99.90;;;;;;5094883;28;20032;-70
2021/06/21 04:32:53;;;;;;;11.20;2.45;;;18.50;99.90;;;;;;5094827;28;20024;-69
2021/06/21 04:35:21;;;;;;;17.23;2.35;;;18.50;99.90;;;;;;5094800;28;20399;-72
2021/06/21 04:37:46;;;;;;;10.93;2.30;;;18.60;99.90;;;;;;5095276;28;20030;-72
2021/06/21 04:40:15;;;;;;;8.60;2.08;;;18.60;99.90;;;;;;5096730;28;20036;-72
2021/06/21 04:42:44;;;;;;;5.07;1.98;;;18.60;99.90;;;;;;5094899;28;20381;-73
2021/06/21 04:45:13;;;;;;;9.35;1.88;;;18.60;99.90;;;;;;5095001;28;20028;-73
2021/06/21 04:47:39;;;;;;;11.02;1.98;;;18.70;99.90;;;;;;5076446;28;20028;-72
2021/06/21 04:50:08;;;;;;;11.13;2.60;;;18.70;99.90;;;;;;5076384;28;20035;-70
2021/06/21 04:52:39;;;;;;;9.40;1.90;;;18.80;99.90;;;;;;5076488;28;20031;-70
2021/06/21 04:55:07;;;;;;;9.93;2.30;;;18.80;99.90;;;;;;5076197;28;20024;-70
2021/06/21 04:57:33;;;;;;;11.40;1.95;;;18.90;99.90;;;;;;5094717;28;20020;-70
2021/06/21 05:00:00;;;;;;;10.93;2.15;;;19.00;99.90;;;;;;5076023;28;20024;-69
2021/06/21 05:02:26;;;;;;;7.80;2.25;;;19.10;99.90;;;;;;5075997;28;20027;-70
2021/06/21 05:04:52;;;;;;;16.52;2.53;;;19.10;99.90;;;;;;5094362;28;20028;-70
2021/06/21 05:07:18;;;;;;;13.02;2.13;;;19.10;99.90;;;;;;5075872;28;20074;-70
2021/06/21 05:09:44;;;;;;;7.95;1.70;;;19.10;99.90;;;;;;5094140;28;20043;-70
2021/06/21 05:12:10;;;;;;;9.63;1.98;;;19.20;99.90;;;;;;5094107;28;20036;-69
2021/06/21 05:14:37;;;;;;;8.80;2.35;;;19.20;99.90;;;;;;5094083;28;20024;-69
2021/06/21 05:17:07;;;;;;;7.88;1.95;;;19.20;99.90;;;;;;5093985;28;20434;-70
2021/06/21 05:19:33;;;;;;;9.15;2.30;;;19.20;99.90;;;;;;5075689;28;20038;-69
2021/06/21 05:21:59;;;;;;;10.52;1.80;;;19.30;99.90;;;;;;5093847;28;20024;-69
2021/06/21 05:24:25;;;;;;;9.95;2.10;;;19.30;99.90;;;;;;5075769;28;20130;-70
2021/06/21 05:26:51;;;;;;;7.72;1.70;;;19.40;99.90;;;;;;5075957;28;20117;-69
2021/06/21 05:29:17;;;;;;;8.98;2.33;;;19.40;99.90;;;;;;5075849;28;20124;-70
2021/06/21 05:31:43;;;;;;;13.10;2.15;;;19.60;99.90;;;;;;5093798;28;20481;-69
2021/06/21 05:34:08;;;;;;;10.98;1.88;;;19.70;99.90;;;;;;5094738;28;20028;-70
2021/06/21 05:36:34;;;;;;;8.25;2.17;;;19.70;99.90;;;;;;5094408;28;20027;-68
2021/06/21 05:39:00;;;;;;;10.73;2.08;;;19.80;99.90;;;;;;5093668;28;20391;-68
2021/06/21 05:41:25;;;;;;;8.68;2.17;;;20.00;99.90;;;;;;5093489;28;20028;-68
2021/06/21 05:43:51;;;;;;;6.75;2.05;;;20.00;99.90;;;;;;5093631;28;20362;-69
2021/06/21 05:46:17;;;;;;;9.38;2.33;;;20.10;99.90;;;;;;5092368;28;20024;-69
2021/06/21 05:48:42;;;;;;;5.70;1.75;;;20.30;99.90;;;;;;5075012;28;20526;-69
2021/06/21 05:51:08;;;;;;;6.47;1.90;;;20.30;99.90;;;;;;5092329;28;20040;-69
2021/06/21 05:53:33;;;;;;;5.68;1.73;;;20.30;99.90;;;;;;5076545;28;20024;-68
2021/06/21 05:55:59;;;;;;;11.35;1.90;;;20.40;99.90;;;;;;5093167;28;20024;-68
2021/06/21 05:58:25;;;;;;;9.38;1.70;;;20.40;99.90;;;;;;5094090;28;20039;-67
2021/06/21 06:00:50;;;;;;;8.05;2.42;;;20.50;99.90;;;;;;5094065;28;20028;-68
2021/06/21 06:03:16;;;;;;;8.80;2.10;;;20.50;99.90;;;;;;5093458;28;20535;-69
2021/06/21 06:05:42;;;;;;;12.32;2.22;;;20.60;99.90;;;;;;5093283;28;20480;-69
2021/06/21 06:08:08;;;;;;;10.32;2.53;;;20.60;99.90;;;;;;5093388;28;20504;-69
2021/06/21 06:10:34;;;;;;;10.80;1.83;;;20.80;99.90;;;;;;5074906;28;20073;-67
2021/06/21 06:12:59;;;;;;;9.07;2.58;;;20.90;99.90;;;;;;5074989;28;20028;-68
2021/06/21 06:15:25;;;;;;;9.50;1.52;;;21.00;99.90;;;;;;5075044;28;20016;-69
2021/06/21 06:17:51;;;;;;;7.30;2.28;;;21.20;99.90;;;;;;5093119;28;20503;-67
2021/06/21 06:20:17;;;;;;;6.40;1.83;;;21.30;99.90;;;;;;5074786;28;20051;-68
2021/06/21 06:22:43;;;;;;;10.52;2.40;;;21.40;99.90;;;;;;5074904;28;20074;-68
2021/06/21 06:25:11;;;;;;;7.47;1.40;;;21.50;99.90;;;;;;5092900;28;20073;-68
2021/06/21 06:27:37;;;;;;;9.80;2.30;;;21.50;99.90;;;;;;5074164;28;20110;-67
2021/06/21 06:30:05;;;;;;;9.27;2.05;;;21.60;99.90;;;;;;5093021;28;20051;-67
2021/06/21 06:32:34;;;;;;;11.55;2.10;;;21.70;99.90;;;;;;5092716;28;20036;-68
2021/06/21 06:35:04;;;;;;;8.65;1.70;;;21.60;99.90;;;;;;5074425;28;20017;-68
2021/06/21 06:37:29;;;;;;;8.35;2.00;;;21.60;99.90;;;;;;5092916;28;20031;-67
2021/06/21 06:39:56;;;;;;;9.25;1.98;;;21.60;99.90;;;;;;5074805;28;20024;-69
2021/06/21 06:42:22;;;;;;;8.77;2.40;;;21.70;99.90;;;;;;5093029;28;20024;-70
2021/06/21 06:44:48;;;;;;;;;;;21.70;99.90;;;;;;5093292;28;20120;-69
2021/06/21 06:47:14;;;;;;;9.05;1.98;;;21.80;99.90;;;;;;5093194;28;20363;-66
2021/06/21 06:49:39;;;;;;;8.30;2.00;;;21.90;99.90;;;;;;5074918;28;20020;-67
2021/06/21 06:52:05;;;;;;;6.45;1.80;;;21.70;99.90;;;;;;5092978;28;20039;-69
2021/06/21 06:54:46;;;;;;;5.97;1.70;;;21.70;99.90;;;;;;5093325;28;20021;-67
2021/06/21 06:57:12;;;;;;;9.38;1.95;;;21.70;99.90;;;;;;5077414;28;20485;-69
2021/06/21 06:59:39;;;;;;;12.63;2.30;;;21.70;99.90;;;;;;5093334;28;20035;-68
2021/06/21 07:02:08;;;;;;;6.40;1.63;;;21.60;99.90;;;;;;5078608;28;20342;-69
2021/06/21 07:04:36;;;;;;;10.05;2.10;;;21.60;99.90;;;;;;5097051;28;20455;-69
2021/06/21 07:07:03;;;;;;;9.55;2.50;;;21.60;99.90;;;;;;5097026;28;20336;-69
2021/06/21 07:09:30;;;;;;;8.60;2.13;;;21.60;99.90;;;;;;5096654;28;20052;-67
2021/06/21 07:11:56;;;;;;;9.45;1.80;;;21.80;99.90;;;;;;5078362;28;20021;-67
2021/06/21 07:14:22;;;;;;;10.80;1.70;;;21.90;99.90;;;;;;5096538;28;20016;-68
2021/06/21 07:16:50;;;;;;;8.00;2.33;;;21.90;99.90;;;;;;5078434;28;20449;-68
2021/06/21 07:19:20;;;;;;;9.25;2.00;;;22.00;99.90;;;;;;5096442;28;20024;-68
2021/06/21 07:21:47;;;;;;;9.80;2.30;;;22.20;99.90;;;;;;5096490;28;20020;-67
2021/06/21 07:24:14;;;;;;;8.13;2.45;;;22.30;99.90;;;;;;5096525;28;20016;-69
2021/06/21 07:26:41;;;;;;;9.38;2.13;;;22.40;99.90;;;;;;5097818;28;20031;-70
2021/06/21 07:29:07;;;;;;;5.38;2.15;;;22.50;99.90;;;;;;5097303;28;20172;-68
2021/06/21 07:31:34;;;;;;;10.43;2.30;;;22.50;99.90;;;;;;5078347;28;20052;-69
2021/06/21 07:34:01;;;;;;;7.60;1.88;;;22.70;99.90;;;;;;5097277;28;20031;-68
2021/06/21 07:36:27;;;;;;;11.93;2.28;;;22.70;99.90;;;;;;5096889;28;20399;-69
2021/06/21 07:38:53;;;;;;;10.15;2.22;;;22.70;99.90;;;;;;5078221;28;20073;-69
2021/06/21 07:41:19;;;;;;;7.43;2.15;;;22.70;99.90;;;;;;5078391;28;20028;-69
2021/06/21 07:43:45;;;;;;;;;;;22.80;99.90;;;;;;5079634;28;20032;-69
2021/06/21 07:46:11;;;;;;;8.32;2.15;;;23.10;99.90;;;;;;5079406;28;19914;-70
2021/06/21 07:48:43;;;;;;;6.57;2.05;;;24.10;99.90;;;;;;5078309;28;20030;-69
2021/06/21 07:51:10;;;;;;;7.22;2.00;;;25.70;99.90;;;;;;5077849;28;20042;-69
2021/06/21 07:53:37;;;;;;;7.07;1.77;;;27.40;99.10;;;;;;5096089;28;20059;-68
2021/06/21 07:56:05;;;;;;;9.40;1.83;;;28.50;96.70;;;;;;5095967;28;20549;-69
2021/06/21 07:58:32;;;;;;;8.88;2.03;;;28.70;95.70;;;;;;5095977;28;20024;-69
2021/06/21 08:00:57;;;;;;;9.80;2.10;;;28.60;95.30;;;;;;5095795;28;20045;-69
2021/06/21 08:03:24;;;;;;;8.40;2.15;;;28.30;94.90;;;;;;5095895;28;20016;-68
2021/06/21 08:05:50;;;;;;;8.65;1.65;;;28.30;95.00;;;;;;5095404;28;20039;-69
2021/06/21 08:08:16;;;;;;;5.68;1.95;;;28.70;94.10;;;;;;5095423;28;20024;-69
2021/06/21 08:10:42;;;;;;;8.38;1.92;;;29.00;93.00;;;;;;5095275;28;20411;-69
2021/06/21 08:13:08;;;;;;;8.63;2.65;;;29.60;92.40;;;;;;5095318;28;20030;-69
2021/06/21 08:15:33;;;;;;;5.38;1.92;;;31.20;90.80;;;;;;5095488;28;20081;-68
2021/06/21 08:17:59;;;;;;;6.32;2.58;;;32.40;87.00;;;;;;5077511;28;20480;-69
2021/06/21 08:20:25;;;;;;;7.57;1.88;;;33.70;83.40;;;;;;5077083;28;20029;-68
2021/06/21 08:22:51;;;;;;;10.05;2.08;;;34.70;78.60;;;;;;5095410;28;20028;-68
2021/06/21 08:25:17;;;;;;;6.32;1.80;;;35.30;74.70;;;;;;5094851;28;20024;-69
2021/06/21 08:27:43;;;;;;;8.38;2.45;;;35.70;72.00;;;;;;5094711;28;20081;-69
2021/06/21 08:30:09;;;;;;;4.95;1.40;;;35.60;70.70;;;;;;5094827;28;20054;-69
2021/06/21 08:32:36;;;;;;;7.30;2.28;;;36.10;69.20;;;;;;5094878;28;20050;-69
2021/06/21 08:35:02;;;;;;;7.72;1.90;;;36.40;67.60;;;;;;5095202;28;20044;-68
2021/06/21 08:37:28;;;;;;;5.97;1.58;;;36.70;66.50;;;;;;5076744;28;20032;-69
2021/06/21 08:39:54;;;;;;;7.85;1.98;;;37.20;65.70;;;;;;5094992;28;20024;-70
2021/06/21 08:42:20;;;;;;;5.75;1.77;;;37.10;64.30;;;;;;5094621;28;20546;-69
2021/06/21 08:44:46;;;;;;;9.68;2.40;;;37.30;63.20;;;;;;5094677;28;20024;-70
2021/06/21 08:47:14;;;;;;;7.18;1.75;;;37.80;61.50;;;;;;5094408;28;20543;-69
2021/06/21 08:49:45;;;;;;;5.53;1.50;;;38.20;60.60;;;;;;5094402;28;20069;-70
2021/06/21 08:52:16;;;;;;;6.85;2.15;;;38.10;60.30;;;;;;5094897;28;20534;-68
2021/06/21 08:54:42;;;;;;;6.53;2.08;;;38.40;59.40;;;;;;5094743;28;20020;-69
2021/06/21 08:57:08;;;;;;;5.40;1.83;;;39.20;58.20;;;;;;5094529;28;20054;-69
2021/06/21 08:59:34;;;;;;;7.95;1.67;;;39.60;57.70;;;;;;5075979;28;20490;-69
2021/06/21 09:02:00;;;;;;;4.30;1.90;;;39.60;57.10;;;;;;5075636;28;20055;-69
2021/06/21 09:04:28;;;;;;;4.72;1.58;;;39.50;56.40;;;;;;5094274;28;20020;-69
2021/06/21 09:07:12;;;;;;;5.35;1.80;;;38.50;57.10;;;;;;5094004;28;20020;-69
2021/06/21 09:09:38;;;;;;;6.87;1.93;;;38.80;57.10;;;;;;5094533;28;20359;-70
2021/06/21 09:12:04;;;;;;;5.38;1.83;;;39.20;56.20;;;;;;5094296;28;20099;-69
2021/06/21 09:14:32;;;;;;;4.53;1.95;;;39.20;55.20;;;;;;5093981;28;20102;-69
2021/06/21 09:17:01;;;;;;;5.72;2.25;;;39.50;54.50;;;;;;5075599;28;20024;-70
2021/06/21 09:19:27;;;;;;;4.90;1.48;;;40.30;53.30;;;;;;5093685;28;20020;-69
2021/06/21 09:21:53;;;;;;;8.43;1.63;;;39.40;52.50;;;;;;5075508;28;20060;-69
2021/06/21 09:24:24;;;;;;;3.83;1.63;;;38.80;53.00;;;;;;5092861;28;20032;-69
2021/06/21 09:26:54;;;;;;;4.32;1.70;;;39.30;52.40;;;;;;5093533;28;20012;-69
2021/06/21 09:29:52;;;;;;;5.35;1.58;;;39.10;52.50;;;;;;5093278;28;20023;-69
2021/06/21 09:32:19;;;;;;;5.28;1.63;;;38.10;53.00;;;;;;5060143;28;20067;-70
2021/06/21 09:34:45;;;;;;;4.88;1.48;;;37.40;53.50;;;;;;5093794;28;20103;-69
2021/06/21 09:37:16;;;;;;;6.20;1.75;;;36.10;55.10;;;;;;5093427;28;20451;-69
2021/06/21 09:39:47;;;;;;;5.60;1.40;;;34.60;57.10;;;;;;5075739;28;20051;-69
2021/06/21 09:42:15;;;;;;;4.38;1.20;;;33.10;59.80;;;;;;5094769;28;20027;-69
2021/06/21 09:44:51;;;;;;;3.47;1.40;;;33.60;59.90;;;;;;5095091;28;20074;-69
2021/06/21 09:47:30;;;;;;;5.30;1.58;;;34.50;58.40;;;;;;5093694;28;20028;-69
2021/06/21 09:50:10;;;;;;;8.57;1.63;;;35.60;57.80;;;;;;5093971;28;20103;-70
2021/06/21 09:52:49;;;;;;;5.47;2.33;;;36.80;56.00;;;;;;5093614;28;20032;-68
2021/06/21 09:55:44;;;;;;;4.15;1.60;;;36.10;55.90;;;;;;5093291;28;20069;-69
2021/06/21 09:58:16;;;;;;;4.05;1.30;;;35.30;56.50;;;;;;5093350;28;20080;-69
2021/06/21 10:00:49;;;;;;;3.83;1.50;;;36.10;56.20;;;;;;5074931;28;20026;-68
2021/06/21 10:03:27;;;;;;;3.50;1.65;;;37.10;54.70;;;;;;5093329;28;20457;-71
2021/06/21 10:06:10;;;;;;;3.83;1.52;;;37.90;54.30;;;;;;5093387;28;20080;-69
2021/06/21 10:08:45;;;;;;;4.13;1.30;;;38.50;53.70;;;;;;5074852;28;20110;-68
2021/06/21 10:11:33;;;;;;;4.80;1.30;;;39.00;52.70;;;;;;5093087;28;20016;-68
2021/06/21 10:14:00;;;;;;;6.00;1.80;;;38.10;52.80;;;;;;5093024;28;20085;-68
2021/06/21 10:16:26;;;;;;;6.38;2.10;;;36.60;55.00;;;;;;5092919;28;20024;-68
2021/06/21 10:18:54;;;;;;;6.80;1.83;;;36.20;55.90;;;;;;5074566;28;20032;-68
2021/06/21 10:21:20;;;;;;;4.22;1.63;;;35.60;56.50;;;;;;5092338;28;20024;-68
2021/06/21 10:23:45;;;;;;;3.72;2.20;;;36.20;56.40;;;;;;5092624;28;20430;-68
2021/06/21 10:26:11;;;;;;;4.28;1.48;;;37.50;55.00;;;;;;5092646;28;20055;-69
2021/06/21 10:28:37;;;;;;;4.50;1.45;;;37.10;54.80;;;;;;5092691;28;20380;-68
2021/06/21 10:31:04;;;;;;;7.43;3.20;;;37.20;54.40;;;;;;5092779;28;20024;-69
2021/06/21 10:33:30;;;;;;;5.75;2.55;;;37.70;54.10;;;;;;5092837;28;20442;-69
2021/06/21 10:36:05;;;;;;;2.33;1.63;;;38.50;53.20;;;;;;5094964;28;20027;-69
2021/06/21 10:38:31;;;;;;;3.63;1.97;;;37.80;53.70;;;;;;5096660;28;20028;-69
2021/06/21 10:41:01;;;;;;;6.65;1.50;;;38.00;53.90;;;;;;5096676;28;20035;-69
2021/06/21 10:43:45;;;;;;;4.03;1.60;;;37.60;53.80;;;;;;5096859;28;20021;-67
2021/06/21 10:46:28;;;;;;;7.78;5.53;;;37.00;54.40;;;;;;5096656;28;20020;-68
2021/06/21 10:49:02;;;;;;;3.22;2.42;;;37.30;53.70;;;;;;5096744;28;20024;-69
2021/06/21 10:51:39;;;;;;;4.63;1.60;;;38.10;52.90;;;;;;5078098;28;20036;-70
2021/06/21 10:54:07;;;;;;;4.93;1.40;;;37.90;52.50;;;;;;5096316;28;20032;-67
2021/06/21 10:56:52;;;;;;;3.25;1.70;;;36.80;53.20;;;;;;5096308;28;20097;-69
2021/06/21 10:59:20;;;;;;;4.18;1.30;;;36.10;54.90;;;;;;5096752;28;20485;-68
2021/06/21 11:01:51;;;;;;;4.13;1.48;;;37.10;54.40;;;;;;5096946;28;20024;-68
2021/06/21 11:04:32;;;;;;;4.75;1.60;;;36.70;53.50;;;;;;5096563;28;20046;-67
2021/06/21 11:07:08;;;;;;;7.15;1.58;;;35.30;55.10;;;;;;5096365;28;20038;-68
2021/06/21 11:09:40;;;;;;;2.00;1.42;;;34.00;57.10;;;;;;5096334;28;20047;-68
2021/06/21 11:12:27;;;;;;;3.75;1.35;;;33.10;58.60;;;;;;5095849;28;20020;-68
2021/06/21 11:15:10;;;;;;;;;;;32.50;60.10;;;;;;5096577;28;20434;-68
2021/06/21 11:17:42;;;;;;;5.13;1.15;;;32.20;60.70;;;;;;5096315;28;19904;-68
2021/06/21 11:20:27;;;;;;;4.95;2.08;;;31.50;61.10;;;;;;5096211;28;20119;-68
2021/06/21 11:22:57;;;;;;;3.67;1.35;;;30.90;62.90;;;;;;5096192;28;20039;-68
2021/06/21 11:25:25;;;;;;;5.30;1.40;;;30.50;63.80;;;;;;5095943;28;20024;-68
2021/06/21 11:27:52;;;;;;;6.45;1.58;;;30.00;64.80;;;;;;5095867;28;20023;-69
2021/06/21 11:30:26;;;;;;;5.30;1.70;;;29.50;65.90;;;;;;5096317;28;20020;-68
2021/06/21 11:32:55;;;;;;;2.13;1.40;;;29.40;66.60;;;;;;5095886;28;20043;-68
2021/06/21 11:35:47;;;;;;;4.88;1.40;;;29.40;66.30;;;;;;5096289;28;20096;-68
2021/06/21 11:38:42;;;;;;;4.20;1.77;;;29.20;66.60;;;;;;5077509;28;20089;-67
2021/06/21 11:41:23;;;;;;;4.35;1.70;;;29.10;68.30;;;;;;5069262;28;20487;-68
2021/06/21 11:44:00;;;;;;;5.40;1.75;;;29.10;67.50;;;;;;5095772;28;20028;-68
2021/06/21 11:46:37;;;;;;;3.15;1.60;;;29.00;67.30;;;;;;5095629;28;20028;-68
2021/06/21 11:49:09;;;;;;;3.85;1.70;;;28.80;68.80;;;;;;5077809;28;20024;-68
2021/06/21 11:51:35;;;;;;;5.30;1.63;;;28.80;68.60;;;;;;5096590;28;20047;-68
2021/06/21 11:54:02;;;;;;;6.15;1.63;;;28.80;69.00;;;;;;5096835;28;20028;-68
2021/06/21 11:56:29;;;;;;;5.78;1.75;;;28.80;69.00;;;;;;5095750;28;20054;-68
2021/06/21 11:58:56;;;;;;;7.88;1.77;;;28.80;69.50;;;;;;5096459;28;20087;-68
2021/06/21 12:01:28;;;;;;;2.97;1.38;;;28.80;70.10;;;;;;5095579;28;20435;-68
2021/06/21 12:03:59;;;;;;;5.85;1.58;;;28.80;70.00;;;;;;5077304;28;20136;-68
2021/06/21 12:06:26;;;;;;;4.80;1.60;;;28.90;69.90;;;;;;5095702;28;20469;-68
2021/06/21 12:08:51;;;;;;;4.60;1.73;;;28.80;69.50;;;;;;5095712;28;20112;-67
2021/06/21 12:11:22;;;;;;;2.22;1.17;;;28.70;69.90;;;;;;5095256;28;20532;-66
2021/06/21 12:14:18;;;;;;;5.43;1.60;;;28.50;70.80;;;;;;5077030;28;20097;-68
2021/06/21 12:16:44;;;;;;;3.60;1.40;;;28.30;72.10;;;;;;5094211;28;20067;-69
2021/06/21 12:19:10;;;;;;;3.53;1.40;;;28.00;72.40;;;;;;5076953;28;20044;-68
2021/06/21 12:21:44;;;;;;;3.30;1.27;;;27.80;71.70;;;;;;5095929;28;20496;-67
2021/06/21 12:24:29;;;;;;;2.75;1.27;;;27.70;72.70;;;;;;5095521;28;20028;-68
2021/06/21 12:27:03;;;;;;;3.03;1.88;;;27.60;72.40;;;;;;5095039;28;20020;-67
2021/06/21 12:29:37;;;;;;;6.55;2.00;;;27.70;73.20;;;;;;5095272;28;20031;-68
2021/06/21 12:32:07;;;;;;;8.88;2.42;;;27.70;73.60;;;;;;5095095;28;20063;-68
2021/06/21 12:34:54;;;;;;;2.53;1.52;;;27.80;74.10;;;;;;5095545;28;20515;-68
2021/06/21 12:37:27;;;;;;;3.47;1.48;;;27.90;72.90;;;;;;5095329;28;20394;-68
2021/06/21 12:39:56;;;;;;;6.50;1.92;;;28.00;73.50;;;;;;5076623;28;20035;-69
2021/06/21 12:42:23;;;;;;;5.03;2.17;;;28.00;73.60;;;;;;5076575;28;20115;-67
2021/06/21 12:44:49;;;;;;;3.67;1.63;;;27.80;73.00;;;;;;5095246;28;20039;-69
2021/06/21 12:47:21;;;;;;;4.43;1.75;;;27.70;73.60;;;;;;5076486;28;20020;-69
2021/06/21 12:49:48;;;;;;;3.42;1.33;;;27.70;74.00;;;;;;5095141;28;20024;-68
2021/06/21 12:52:16;;;;;;;2.97;1.35;;;27.60;74.10;;;;;;5094549;28;20028;-68
2021/06/21 12:54:43;;;;;;;4.25;1.58;;;27.60;73.40;;;;;;5094506;28;20020;-68